Time;durP1;ratioP1;P1;durP2;ratioP2;P2;SDS_P1;SDS_P2;PMS_P1;PMS_P2;Temp;Humidity;BMP_temperature;BMP_pressure;BME280_temperature;BME280_humidity;BME280_pressure;Samples;Min_cycle;Max_cycle;Signal;HPM_P1;HPM_P2
2022/10/05 00:00:43;;;;;;;9.45;4.97;;;;;14.80;101274.00;;;;13042024;22;20168;-73
2022/10/05 00:05:45;;;;;;;9.40;5.27;;;;;14.80;101281.00;;;;13063063;22;20205;-73
2022/10/05 00:10:47;;;;;;;6.93;4.50;;;;;14.80;101278.00;;;;13088842;22;20710;-73
2022/10/05 00:15:49;;;;;;;6.65;4.53;;;;;14.70;101267.00;;;;13089433;22;20179;-73
2022/10/05 00:20:50;;;;;;;8.50;4.30;;;;;14.70;101273.00;;;;13088528;22;20218;-73
2022/10/05 00:25:51;;;;;;;7.93;5.00;;;;;14.70;101267.00;;;;13017054;22;20476;-73
2022/10/05 00:30:57;;;;;;;7.63;4.63;;;;;14.70;101272.00;;;;13088764;22;20164;-74
2022/10/05 00:35:59;;;;;;;6.90;5.15;;;;;14.70;101263.00;;;;13041043;22;20174;-73
2022/10/05 00:41:11;;;;;;;7.38;5.03;;;;;14.70;101261.00;;;;13042432;22;20194;-74
2022/10/05 00:46:12;;;;;;;6.78;4.70;;;;;14.70;101257.00;;;;13014518;22;20171;-73
2022/10/05 00:51:27;;;;;;;7.30;5.32;;;;;14.70;101243.00;;;;13062714;22;20781;-73
2022/10/05 00:56:56;;;;;;;9.75;5.88;;;;;14.80;101243.00;;;;13066944;22;20228;-74
2022/10/05 01:02:06;;;;;;;8.77;5.30;;;;;14.80;101257.00;;;;13040886;22;20802;-73
2022/10/05 01:07:18;;;;;;;8.97;5.63;;;;;14.80;101254.00;;;;13040493;22;20167;-73
2022/10/05 01:12:34;;;;;;;8.57;6.03;;;;;14.80;101251.00;;;;13015176;22;20791;-74
2022/10/05 01:17:53;;;;;;;6.95;5.18;;;;;14.80;101248.00;;;;13061614;22;20159;-73
2022/10/05 01:23:35;;;;;;;11.57;6.45;;;;;14.70;101231.00;;;;13063171;22;20179;-74
2022/10/05 01:28:41;;;;;;;8.83;5.13;;;;;14.60;101224.00;;;;13016479;22;20231;-73
2022/10/05 01:34:00;;;;;;;9.53;5.90;;;;;14.50;101225.00;;;;13085983;22;20288;-74
2022/10/05 01:39:15;;;;;;;8.07;5.43;;;;;14.40;101225.00;;;;13063622;22;20169;-73
2022/10/05 01:44:24;;;;;;;7.77;5.80;;;;;14.30;101221.00;;;;13067393;22;20667;-73
2022/10/05 01:49:44;;;;;;;6.60;5.37;;;;;14.20;101212.00;;;;13063038;22;20160;-73
2022/10/05 01:54:49;;;;;;;7.97;5.90;;;;;14.10;101209.00;;;;13038651;22;20171;-73
2022/10/05 02:00:10;;;;;;;10.40;6.10;;;;;14.00;101197.00;;;;13041382;22;20168;-74
2022/10/05 02:05:50;;;;;;;9.80;5.83;;;;;13.80;101201.00;;;;13040888;22;20202;-73
2022/10/05 02:11:00;;;;;;;10.30;6.60;;;;;13.70;101188.00;;;;13090037;22;20262;-74
2022/10/05 02:16:08;;;;;;;9.07;5.97;;;;;13.60;101185.00;;;;13017019;22;20220;-74
2022/10/05 02:21:09;;;;;;;8.67;6.97;;;;;13.40;101181.00;;;;13091461;22;20713;-73
2022/10/05 02:26:12;;;;;;;9.87;7.00;;;;;13.40;101170.00;;;;13071304;22;20175;-73
2022/10/05 02:31:18;;;;;;;9.37;7.03;;;;;13.40;101171.00;;;;13019384;22;20267;-73
2022/10/05 02:36:32;;;;;;;9.77;6.60;;;;;13.50;101165.00;;;;13091397;22;20242;-73
2022/10/05 02:41:40;;;;;;;10.07;7.63;;;;;13.50;101169.00;;;;13089829;22;20175;-73
2022/10/05 02:46:45;;;;;;;12.73;7.60;;;;;13.50;101151.00;;;;13018570;22;20175;-73
2022/10/05 02:51:54;;;;;;;13.07;7.77;;;;;13.50;101150.00;;;;13045290;22;20172;-74
2022/10/05 02:57:37;;;;;;;12.77;7.73;;;;;13.50;101150.00;;;;13092536;22;20163;-74
2022/10/05 03:03:00;;;;;;;10.80;7.53;;;;;13.50;101146.00;;;;12946224;22;20237;-74
2022/10/05 03:08:17;;;;;;;10.83;8.43;;;;;13.50;101146.00;;;;13044272;22;20188;-73
2022/10/05 03:13:34;;;;;;;11.03;7.67;;;;;13.50;101135.00;;;;13043191;22;20238;-74
2022/10/05 03:18:44;;;;;;;8.70;6.03;;;;;13.50;101134.00;;;;13066619;22;20591;-73
2022/10/05 03:23:47;;;;;;;9.37;7.10;;;;;13.60;101124.00;;;;13043575;22;20656;-73
2022/10/05 03:29:16;;;;;;;10.87;7.53;;;;;13.70;101130.00;;;;13089332;22;20170;-73
2022/10/05 03:34:20;;;;;;;8.87;5.77;;;;;13.70;101135.00;;;;13018583;22;20187;-73
2022/10/05 03:39:40;;;;;;;10.23;7.17;;;;;13.80;101124.00;;;;13017754;22;20177;-73
2022/10/05 03:44:59;;;;;;;7.77;5.60;;;;;13.80;101135.00;;;;13017224;22;20196;-74
2022/10/05 03:50:05;;;;;;;9.40;5.47;;;;;13.80;101128.00;;;;13017794;22;20172;-74
2022/10/05 03:55:29;;;;;;;7.13;4.87;;;;;13.90;101127.00;;;;13043237;22;20465;-73
2022/10/05 04:00:34;;;;;;;6.07;4.53;;;;;13.90;101130.00;;;;13069562;22;20611;-74
2022/10/05 04:05:47;;;;;;;5.90;3.87;;;;;14.00;101121.00;;;;13091091;22;20206;-74
2022/10/05 04:10:51;;;;;;;9.33;4.67;;;;;14.10;101118.00;;;;13068839;22;20397;-73
2022/10/05 04:16:06;;;;;;;5.53;3.30;;;;;14.30;101107.00;;;;13041813;22;20171;-74
2022/10/05 04:21:22;;;;;;;5.17;3.10;;;;;14.30;101103.00;;;;13065175;22;20183;-74
2022/10/05 04:26:38;;;;;;;8.60;2.80;;;;;14.40;101110.00;;;;13016186;22;20163;-74
2022/10/05 04:32:12;;;;;;;4.70;2.87;;;;;14.40;101101.00;;;;13039228;22;20155;-74
2022/10/05 04:37:58;;;;;;;4.90;2.83;;;;;14.40;101093.00;;;;13017435;22;20197;-74
2022/10/05 04:43:28;;;;;;;3.83;3.07;;;;;14.40;101086.00;;;;13026787;22;20199;-73
2022/10/05 04:48:30;;;;;;;5.63;3.40;;;;;14.40;101084.00;;;;13018017;22;20783;-74
2022/10/05 04:53:53;;;;;;;6.27;3.03;;;;;14.40;101077.00;;;;13063346;22;20160;-73
2022/10/05 04:59:13;;;;;;;3.60;3.00;;;;;14.40;101070.00;;;;13017028;22;20263;-74
2022/10/05 05:04:40;;;;;;;4.77;3.57;;;;;14.40;101074.00;;;;13065582;22;20183;-74
2022/10/05 05:09:52;;;;;;;4.90;3.30;;;;;14.40;101055.00;;;;13089955;22;20183;-73
2022/10/05 05:15:21;;;;;;;7.77;4.00;;;;;14.40;101062.00;;;;13015501;22;20220;-73
2022/10/05 05:20:33;;;;;;;5.10;3.70;;;;;14.40;101054.00;;;;13043196;22;20191;-74
2022/10/05 05:25:47;;;;;;;5.93;3.60;;;;;14.40;101049.00;;;;13016646;22;20215;-73
2022/10/05 05:31:00;;;;;;;3.50;3.20;;;;;14.40;101041.00;;;;13042703;22;20172;-73
2022/10/05 05:36:21;;;;;;;3.40;3.10;;;;;14.40;101050.00;;;;13090062;22;20178;-73
2022/10/05 05:41:36;;;;;;;3.50;3.13;;;;;14.40;101039.00;;;;13042342;22;20688;-74
2022/10/05 05:46:42;;;;;;;6.97;3.40;;;;;14.50;101033.00;;;;13015734;22;20175;-74
2022/10/05 05:52:14;;;;;;;8.87;3.13;;;;;14.50;101041.00;;;;13063051;22;20357;-73
2022/10/05 05:57:18;;;;;;;3.47;3.07;;;;;14.50;101042.00;;;;13041493;22;20167;-73
2022/10/05 06:02:26;;;;;;;6.97;2.70;;;;;14.60;101031.00;;;;13016718;22;20217;-73
2022/10/05 06:07:30;;;;;;;8.60;2.83;;;;;14.70;101030.00;;;;12992351;22;20171;-73
2022/10/05 06:12:40;;;;;;;6.72;2.60;;;;;14.80;101036.00;;;;13016881;22;20191;-73
2022/10/05 06:17:46;;;;;;;3.53;2.47;;;;;15.00;101045.00;;;;12990770;22;20179;-74
2022/10/05 06:22:50;;;;;;;9.80;2.93;;;;;15.10;101040.00;;;;13015354;22;20203;-73
2022/10/05 06:28:14;;;;;;;3.83;2.70;;;;;15.20;101038.00;;;;13062996;22;20191;-74
2022/10/05 06:33:45;;;;;;;4.33;2.37;;;;;15.30;101042.00;;;;13039499;22;20186;-73
2022/10/05 06:39:20;;;;;;;7.22;2.38;;;;;15.50;101043.00;;;;13042116;22;20403;-74
2022/10/05 06:44:59;;;;;;;2.88;2.28;;;;;15.60;101041.00;;;;13038648;22;20209;-73
2022/10/05 06:50:35;;;;;;;5.95;2.30;;;;;15.80;101041.00;;;;13089889;22;20159;-74
2022/10/05 06:56:15;;;;;;;2.38;2.17;;;;;15.90;101053.00;;;;13046036;22;20320;-74
2022/10/05 07:01:42;;;;;;;4.53;2.20;;;;;16.10;101052.00;;;;13065289;22;20207;-74
2022/10/05 07:07:09;;;;;;;2.70;2.40;;;;;16.20;101056.00;;;;13040108;22;20171;-74
2022/10/05 07:12:29;;;;;;;4.15;2.20;;;;;16.30;101037.00;;;;13039299;22;20272;-74
2022/10/05 07:17:45;;;;;;;3.08;2.08;;;;;16.40;101044.00;;;;13081167;22;20175;-74
2022/10/05 07:23:16;;;;;;;5.10;2.33;;;;;16.60;101044.00;;;;13065864;22;20214;-74
2022/10/05 07:28:42;;;;;;;3.20;2.10;;;;;16.60;101054.00;;;;13037516;22;20195;-74
2022/10/05 07:33:57;;;;;;;2.58;1.95;;;;;16.80;101056.00;;;;13060041;22;20180;-73
2022/10/05 07:39:04;;;;;;;4.95;2.17;;;;;16.80;101047.00;;;;13063067;22;20785;-74
2022/10/05 07:44:17;;;;;;;6.85;2.45;;;;;16.90;101044.00;;;;13088401;22;20179;-74
2022/10/05 07:49:30;;;;;;;2.67;2.30;;;;;17.00;101057.00;;;;13012257;22;20175;-74
2022/10/05 07:55:03;;;;;;;6.10;2.13;;;;;17.00;101051.00;;;;13087537;22;20171;-74
2022/10/05 08:00:14;;;;;;;6.55;2.30;;;;;17.00;101046.00;;;;13086737;22;20186;-74
2022/10/05 08:05:33;;;;;;;2.22;2.03;;;;;17.10;101044.00;;;;13011822;22;20199;-74
2022/10/05 08:10:54;;;;;;;3.55;2.30;;;;;17.30;101050.00;;;;13082939;22;20185;-74
2022/10/05 08:16:00;;;;;;;5.10;2.53;;;;;17.40;101044.00;;;;13059921;22;20195;-74
2022/10/05 08:21:05;;;;;;;5.10;1.67;;;;;17.50;101044.00;;;;13061550;22;20179;-74
2022/10/05 08:26:21;;;;;;;8.35;1.90;;;;;17.70;101036.00;;;;13037298;22;20168;-74
2022/10/05 08:31:28;;;;;;;5.55;2.35;;;;;17.80;101034.00;;;;13064441;22;20216;-74
2022/10/05 08:36:38;;;;;;;5.60;2.47;;;;;17.90;101037.00;;;;13013245;22;20172;-74
2022/10/05 08:42:13;;;;;;;2.63;1.95;;;;;17.90;101029.00;;;;13065510;22;20191;-74
2022/10/05 08:47:50;;;;;;;4.88;1.90;;;;;18.00;101044.00;;;;13058861;22;20191;-74
2022/10/05 08:53:19;;;;;;;5.78;1.92;;;;;18.10;101032.00;;;;13039926;22;20217;-74
2022/10/05 08:58:35;;;;;;;2.92;1.63;;;;;18.40;101031.00;;;;13116519;22;20794;-74
2022/10/05 09:04:15;;;;;;;3.22;1.92;;;;;18.50;101026.00;;;;13061564;22;20692;-74
2022/10/05 09:09:23;;;;;;;2.00;1.75;;;;;18.70;101031.00;;;;13015564;22;20215;-74
2022/10/05 09:14:32;;;;;;;2.28;1.80;;;;;19.00;101032.00;;;;13088448;22;20159;-74
2022/10/05 09:19:58;;;;;;;2.55;1.98;;;;;19.20;101027.00;;;;13038443;22;20176;-74
2022/10/05 09:25:16;;;;;;;2.50;1.75;;;;;19.30;101030.00;;;;13040414;22;20195;-74
2022/10/05 09:30:48;;;;;;;4.80;2.00;;;;;19.40;101035.00;;;;13014150;22;20258;-73
2022/10/05 09:36:11;;;;;;;3.17;1.90;;;;;19.40;101020.00;;;;13040729;22;20261;-74
2022/10/05 09:41:41;;;;;;;5.03;1.90;;;;;19.70;101019.00;;;;13038254;22;20245;-74
2022/10/05 09:46:52;;;;;;;11.50;1.95;;;;;20.20;101010.00;;;;13083511;22;20267;-74
2022/10/05 09:52:07;;;;;;;4.00;1.70;;;;;20.60;100999.00;;;;13039326;22;20176;-74
2022/10/05 09:57:43;;;;;;;3.45;1.95;;;;;20.90;100989.00;;;;13011471;22;20812;-74
2022/10/05 10:03:12;;;;;;;5.57;1.50;;;;;21.10;100995.00;;;;13037842;22;20568;-75
2022/10/05 10:08:38;;;;;;;4.22;1.92;;;;;21.20;100986.00;;;;13087137;22;20179;-75
2022/10/05 10:14:16;;;;;;;2.17;1.42;;;;;21.90;100970.00;;;;13082852;22;20175;-74
2022/10/05 10:19:55;;;;;;;2.72;1.60;;;;;22.30;100978.00;;;;13084274;22;20163;-74
2022/10/05 10:25:09;;;;;;;1.98;1.58;;;;;22.70;100962.00;;;;13058757;22;20562;-74
2022/10/05 10:30:29;;;;;;;6.53;1.95;;;;;22.60;100962.00;;;;13081301;22;20164;-74
2022/10/05 10:35:52;;;;;;;2.40;1.58;;;;;23.40;100967.00;;;;13060707;22;20155;-75
2022/10/05 10:41:28;;;;;;;4.72;1.45;;;;;23.50;100958.00;;;;13060960;22;20246;-75
2022/10/05 10:46:56;;;;;;;3.53;1.27;;;;;23.30;100956.00;;;;13085758;22;20212;-74
2022/10/05 10:52:10;;;;;;;2.25;1.40;;;;;23.80;100939.00;;;;13035436;22;20246;-75
2022/10/05 10:57:49;;;;;;;3.22;1.75;;;;;23.30;100942.00;;;;13086927;22;20213;-74
2022/10/05 11:03:04;;;;;;;4.07;1.90;;;;;23.70;100929.00;;;;13064997;22;20257;-74
2022/10/05 11:08:21;;;;;;;1.63;1.52;;;;;23.60;100936.00;;;;13067052;22;20170;-75
2022/10/05 11:14:01;;;;;;;3.40;2.00;;;;;22.70;100917.00;;;;13116550;22;20644;-74
2022/10/05 11:19:24;;;;;;;3.60;1.60;;;;;22.20;100917.00;;;;13090943;22;20164;-74
2022/10/05 11:25:03;;;;;;;4.75;1.90;;;;;22.30;100929.00;;;;13014874;22;20205;-74
2022/10/05 11:30:24;;;;;;;3.28;1.50;;;;;22.90;100919.00;;;;13084299;22;20159;-74
2022/10/05 11:35:58;;;;;;;12.45;1.83;;;;;23.80;100909.00;;;;13037387;22;20432;-74
2022/10/05 11:41:13;;;;;;;3.78;1.83;;;;;24.60;100905.00;;;;13014584;22;20526;-72
2022/10/05 11:46:55;;;;;;;4.18;1.70;;;;;24.80;100904.00;;;;13038645;22;20185;-74
2022/10/05 11:52:09;;;;;;;5.00;1.67;;;;;25.30;100916.00;;;;12968428;22;20261;-74
2022/10/05 11:57:36;;;;;;;9.43;2.05;;;;;24.80;100894.00;;;;13056295;22;20232;-73
2022/10/05 12:02:49;;;;;;;3.58;1.58;;;;;25.00;100868.00;;;;13058583;22;20183;-73
2022/10/05 12:07:57;;;;;;;4.53;1.70;;;;;24.30;100881.00;;;;13074348;22;20543;-73
2022/10/05 12:13:07;;;;;;;2.65;1.60;;;;;23.50;100878.00;;;;13026527;22;20207;-73
2022/10/05 12:18:32;;;;;;;3.42;1.75;;;;;23.30;100869.00;;;;13028627;22;20251;-73
2022/10/05 12:23:41;;;;;;;4.95;1.73;;;;;24.20;100863.00;;;;13044706;22;20248;-73
2022/10/05 12:28:42;;;;;;;2.42;1.80;;;;;24.00;100867.00;;;;13074886;22;20633;-73
2022/10/05 12:34:00;;;;;;;4.38;2.00;;;;;24.10;100863.00;;;;13061923;22;20250;-74
2022/10/05 12:39:14;;;;;;;1.60;1.40;;;;;23.80;100867.00;;;;13039235;22;20174;-73
2022/10/05 12:44:40;;;;;;;3.00;1.60;;;;;24.10;100870.00;;;;13037832;22;20616;-74
2022/10/05 12:49:46;;;;;;;3.70;1.90;;;;;24.00;100872.00;;;;13059668;22;20498;-73
2022/10/05 12:55:05;;;;;;;2.65;1.60;;;;;23.10;100872.00;;;;13036681;22;20256;-73
2022/10/05 13:00:14;;;;;;;6.30;1.63;;;;;22.70;100880.00;;;;13087354;22;20171;-73
2022/10/05 13:05:37;;;;;;;6.85;1.70;;;;;22.50;100886.00;;;;13085393;22;20217;-73
2022/10/05 13:10:57;;;;;;;3.58;1.90;;;;;22.00;100904.00;;;;12988423;22;20190;-73
2022/10/05 13:16:22;;;;;;;2.67;1.67;;;;;21.90;100909.00;;;;13113634;22;20159;-73
2022/10/05 13:21:43;;;;;;;3.60;1.70;;;;;21.70;100925.00;;;;13038666;22;20645;-73
2022/10/05 13:26:48;;;;;;;4.78;1.60;;;;;21.40;100950.00;;;;13036503;22;20842;-72
2022/10/05 13:32:18;;;;;;;3.60;1.40;;;;;21.30;100953.00;;;;13035789;22;20179;-73
2022/10/05 13:37:19;;;;;;;3.65;1.40;;;;;20.60;100978.00;;;;13077310;22;20621;-73
2022/10/05 13:42:29;;;;;;;3.42;1.30;;;;;20.20;100987.00;;;;13084555;22;20179;-73
2022/10/05 13:47:52;;;;;;;2.72;1.40;;;;;19.70;101004.00;;;;13037066;22;20251;-73
2022/10/05 13:53:10;;;;;;;2.65;1.23;;;;;19.40;101005.00;;;;13010111;22;20184;-73
2022/10/05 13:58:32;;;;;;;2.72;1.05;;;;;19.10;100994.00;;;;13039077;22;20167;-73
2022/10/05 14:03:36;;;;;;;3.55;1.20;;;;;19.00;100999.00;;;;13110296;22;20183;-73
2022/10/05 14:08:53;;;;;;;2.30;1.10;;;;;19.20;100987.00;;;;13038561;22;20167;-73
2022/10/05 14:14:09;;;;;;;3.42;1.40;;;;;19.20;100995.00;;;;13041207;22;20249;-73
2022/10/05 14:19:17;;;;;;;5.57;1.15;;;;;19.00;100996.00;;;;13113425;22;20220;-73
2022/10/05 14:24:34;;;;;;;3.80;1.40;;;;;19.10;101001.00;;;;13084819;22;20188;-73
2022/10/05 14:29:55;;;;;;;1.30;1.13;;;;;19.10;101003.00;;;;13113558;22;20270;-73
2022/10/05 14:35:13;;;;;;;2.60;1.42;;;;;19.10;101001.00;;;;13013604;22;20197;-73
2022/10/05 14:40:31;;;;;;;1.23;1.05;;;;;19.20;100997.00;;;;13084641;22;20167;-73
2022/10/05 14:45:34;;;;;;;3.63;1.20;;;;;19.70;100995.00;;;;13086982;22;20183;-73
2022/10/05 14:50:51;;;;;;;5.55;1.50;;;;;20.00;100986.00;;;;13114717;22;20172;-73
2022/10/05 14:56:15;;;;;;;2.63;1.40;;;;;20.00;100983.00;;;;13014655;22;20660;-73
2022/10/05 15:01:35;;;;;;;2.33;1.40;;;;;19.70;100983.00;;;;13086315;22;20666;-73
2022/10/05 15:06:43;;;;;;;3.80;1.20;;;;;19.40;100974.00;;;;13066683;22;20182;-73
2022/10/05 15:11:57;;;;;;;3.65;1.90;;;;;19.10;100981.00;;;;13062109;22;20217;-73
2022/10/05 15:17:15;;;;;;;4.07;1.55;;;;;19.00;100975.00;;;;13041967;22;20188;-73
2022/10/05 15:22:39;;;;;;;4.03;1.30;;;;;18.90;100967.00;;;;13014767;22;20195;-73
2022/10/05 15:28:02;;;;;;;1.70;1.60;;;;;18.90;100966.00;;;;13113835;22;20267;-72
2022/10/05 15:33:22;;;;;;;6.68;2.17;;;;;19.00;100985.00;;;;13013518;22;20171;-72
2022/10/05 15:38:27;;;;;;;7.60;2.42;;;;;18.90;100986.00;;;;13041028;22;20171;-72
2022/10/05 15:43:38;;;;;;;3.40;2.28;;;;;18.80;100989.00;;;;13016255;22;20218;-73
2022/10/05 15:48:58;;;;;;;4.47;2.00;;;;;18.70;100984.00;;;;13038617;22;20175;-72
2022/10/05 15:54:40;;;;;;;4.13;2.13;;;;;18.70;100985.00;;;;13066070;22;20178;-73
2022/10/05 16:00:00;;;;;;;2.47;1.50;;;;;18.70;100988.00;;;;13037439;22;20171;-72
2022/10/05 16:11:05;;;;;;;2.40;1.73;;;;;18.70;100987.00;;;;13042879;22;20199;-73
2022/10/05 16:16:22;;;;;;;4.03;2.20;;;;;18.50;101008.00;;;;13061649;22;20248;-76
2022/10/05 16:21:29;;;;;;;4.25;1.70;;;;;18.40;101005.00;;;;13086357;22;20164;-74
2022/10/05 16:26:39;;;;;;;2.63;1.77;;;;;18.30;101012.00;;;;13060961;22;20159;-76
2022/10/05 16:31:59;;;;;;;2.88;1.95;;;;;18.20;101017.00;;;;13063506;22;20183;-74
2022/10/05 16:37:22;;;;;;;3.90;1.70;;;;;18.10;101015.00;;;;13062611;22;20724;-75
2022/10/05 16:42:59;;;;;;;2.53;1.85;;;;;18.00;101028.00;;;;13015804;22;20191;-74
2022/10/05 16:48:23;;;;;;;2.75;1.95;;;;;17.90;101033.00;;;;13059664;22;20171;-75
2022/10/05 16:53:35;;;;;;;3.17;2.03;;;;;17.90;101043.00;;;;13037161;22;20185;-74
2022/10/05 16:59:21;;;;;;;4.03;2.10;;;;;17.90;101029.00;;;;13087272;22;20159;-74
2022/10/05 17:04:47;;;;;;;5.03;2.30;;;;;17.80;101044.00;;;;13063460;22;20218;-74
2022/10/05 17:10:24;;;;;;;3.92;2.10;;;;;17.80;101049.00;;;;13114771;22;20195;-74
2022/10/05 17:15:59;;;;;;;2.47;1.63;;;;;17.80;101055.00;;;;13065837;22;20176;-74
2022/10/05 17:21:36;;;;;;;3.10;1.80;;;;;17.80;101056.00;;;;13014709;22;20179;-74
2022/10/05 17:26:45;;;;;;;7.35;1.98;;;;;17.80;101053.00;;;;13012563;22;20171;-74
2022/10/05 17:32:29;;;;;;;2.42;1.75;;;;;17.70;101064.00;;;;13012436;22;20179;-74
2022/10/05 17:37:42;;;;;;;2.35;1.85;;;;;17.70;101080.00;;;;13080899;22;20262;-74
2022/10/05 17:42:47;;;;;;;3.47;2.10;;;;;17.70;101087.00;;;;13034726;22;20179;-74
2022/10/05 17:47:58;;;;;;;5.53;2.30;;;;;17.70;101087.00;;;;13037754;22;20195;-74
2022/10/05 17:58:42;;;;;;;3.80;2.10;;;;;17.90;101106.00;;;;13063513;22;20195;-74
2022/10/05 18:03:49;;;;;;;3.92;1.77;;;;;17.90;101117.00;;;;13110374;22;20758;-74
2022/10/05 18:09:29;;;;;;;4.60;2.30;;;;;17.90;101114.00;;;;13082273;22;20163;-74
2022/10/05 18:14:52;;;;;;;6.88;2.15;;;;;17.90;101121.00;;;;13062649;22;20205;-74
2022/10/05 18:20:30;;;;;;;3.17;2.40;;;;;18.00;101120.00;;;;13012368;22;20228;-74
2022/10/05 18:25:54;;;;;;;4.88;2.20;;;;;17.90;101117.00;;;;13088087;22;20244;-74
2022/10/05 18:31:25;;;;;;;5.50;2.22;;;;;17.90;101123.00;;;;13056621;22;20669;-74
2022/10/05 18:37:01;;;;;;;4.70;2.00;;;;;17.90;101132.00;;;;13083654;22;20164;-74
2022/10/05 18:42:30;;;;;;;2.75;2.17;;;;;18.00;101149.00;;;;13062672;22;20195;-75
2022/10/05 18:47:54;;;;;;;5.40;2.70;;;;;18.00;101153.00;;;;13083859;22;20690;-74
2022/10/05 18:53:20;;;;;;;5.10;2.80;;;;;18.00;101155.00;;;;13059738;22;20267;-74
2022/10/05 18:58:29;;;;;;;4.43;3.67;;;;;18.00;101161.00;;;;13115926;22;20250;-74
2022/10/05 19:03:53;;;;;;;6.65;2.80;;;;;17.90;101150.00;;;;13062489;22;20191;-74
2022/10/05 19:09:43;;;;;;;6.68;2.60;;;;;17.90;101169.00;;;;13113848;22;20207;-74
2022/10/05 19:15:13;;;;;;;4.13;2.92;;;;;17.90;101181.00;;;;12972751;22;20172;-74
2022/10/05 19:20:32;;;;;;;7.32;3.28;;;;;17.90;101196.00;;;;13013728;22;20206;-74
2022/10/05 19:25:38;;;;;;;10.55;3.30;;;;;17.80;101240.00;;;;13086304;22;20197;-74
2022/10/05 19:30:51;;;;;;;9.23;1.85;;;;;16.70;101282.00;;;;13085849;22;20246;-73
2022/10/05 19:36:03;;;;;;;3.97;1.23;;;;;15.80;101302.00;;;;13062628;22;20199;-73
2022/10/05 19:41:16;;;;;;;2.50;1.70;;;;;15.40;101290.00;;;;13036256;22;20168;-73
2022/10/05 19:46:32;;;;;;;3.38;1.83;;;;;15.20;101288.00;;;;13032326;22;20202;-73
2022/10/05 19:51:45;;;;;;;3.10;2.10;;;;;15.20;101322.00;;;;13084048;22;20194;-74
2022/10/05 19:56:51;;;;;;;2.70;1.50;;;;;15.30;101307.00;;;;13009821;22;20260;-73
2022/10/05 20:01:55;;;;;;;5.30;1.88;;;;;15.30;101301.00;;;;13083107;22;20345;-73
2022/10/05 20:06:58;;;;;;;5.43;2.00;;;;;15.30;101319.00;;;;13006955;22;20211;-73
2022/10/05 20:11:59;;;;;;;4.82;1.55;;;;;15.40;101334.00;;;;13010600;22;20218;-73
2022/10/05 20:23:23;;;;;;;6.45;1.98;;;;;15.40;101357.00;;;;13111580;22;20179;-74
2022/10/05 20:28:32;;;;;;;3.10;1.58;;;;;15.50;101360.00;;;;13084633;22;20515;-73
2022/10/05 20:33:34;;;;;;;6.13;1.75;;;;;15.50;101372.00;;;;13110385;22;20711;-74
2022/10/05 20:38:36;;;;;;;3.78;1.60;;;;;15.50;101393.00;;;;13034275;22;20198;-73
2022/10/05 20:43:42;;;;;;;5.07;2.00;;;;;15.60;101406.00;;;;13056276;22;20268;-74
2022/10/05 20:48:43;;;;;;;5.65;1.63;;;;;15.60;101429.00;;;;13036894;22;20175;-74
2022/10/05 20:53:45;;;;;;;5.60;1.63;;;;;15.60;101438.00;;;;13082718;22;20167;-74
2022/10/05 20:58:46;;;;;;;6.18;1.50;;;;;15.60;101442.00;;;;13061893;22;20171;-75
2022/10/05 21:03:49;;;;;;;6.28;1.30;;;;;15.50;101445.00;;;;13082176;22;20195;-74
2022/10/05 21:08:51;;;;;;;5.50;1.20;;;;;15.50;101475.00;;;;13011605;22;20235;-75
2022/10/05 21:13:53;;;;;;;7.60;1.10;;;;;15.40;101468.00;;;;13062584;22;20174;-75
2022/10/05 21:18:54;;;;;;;4.85;1.25;;;;;15.30;101488.00;;;;13083771;22;20174;-75
2022/10/05 21:23:59;;;;;;;6.28;1.70;;;;;15.30;101508.00;;;;13083886;22;20259;-74
2022/10/05 21:29:01;;;;;;;5.68;1.20;;;;;15.30;101515.00;;;;13111653;22;20406;-74
2022/10/05 21:34:03;;;;;;;8.25;1.90;;;;;15.30;101523.00;;;;13056151;22;20297;-74
2022/10/05 21:39:06;;;;;;;3.78;1.50;;;;;15.30;101536.00;;;;13059536;22;20167;-74
2022/10/05 21:44:07;;;;;;;5.35;1.35;;;;;15.30;101533.00;;;;13080771;22;20646;-75
2022/10/05 21:49:08;;;;;;;8.35;2.45;;;;;15.40;101550.00;;;;13082773;22;20167;-74
2022/10/05 21:54:14;;;;;;;4.38;1.55;;;;;15.40;101548.00;;;;13037232;22;20456;-75
2022/10/05 21:59:18;;;;;;;6.72;1.80;;;;;15.40;101563.00;;;;13036619;22;20187;-75
2022/10/05 22:04:19;;;;;;;5.78;2.80;;;;;15.40;101575.00;;;;13037388;22;20569;-74
2022/10/05 22:09:20;;;;;;;4.95;1.58;;;;;15.20;101590.00;;;;13084952;22;20543;-74
2022/10/05 22:14:22;;;;;;;5.45;1.58;;;;;15.10;101596.00;;;;13112978;22;20250;-74
2022/10/05 22:19:23;;;;;;;9.95;1.58;;;;;14.90;101612.00;;;;13087113;22;20569;-74
2022/10/05 22:24:25;;;;;;;6.05;1.50;;;;;14.80;101623.00;;;;13014169;22;20206;-74
2022/10/05 22:29:26;;;;;;;8.60;1.60;;;;;14.70;101632.00;;;;13061020;22;20163;-74
2022/10/05 22:34:27;;;;;;;2.58;1.10;;;;;14.60;101642.00;;;;13040725;22;20275;-74
2022/10/05 22:39:29;;;;;;;5.43;1.33;;;;;14.50;101643.00;;;;13116255;22;20723;-74
2022/10/05 22:44:32;;;;;;;9.30;2.33;;;;;14.40;101661.00;;;;13041635;22;20601;-74
2022/10/05 22:49:33;;;;;;;4.07;1.07;;;;;14.30;101676.00;;;;13040255;22;20167;-74
2022/10/05 22:54:34;;;;;;;10.73;1.57;;;;;14.30;101678.00;;;;13087866;22;20607;-74
2022/10/05 22:59:38;;;;;;;6.30;1.37;;;;;14.20;101680.00;;;;13067741;22;20168;-74
2022/10/05 23:04:39;;;;;;;5.78;1.58;;;;;14.10;101697.00;;;;13041393;22;20274;-74
2022/10/05 23:09:40;;;;;;;9.10;1.40;;;;;14.10;101701.00;;;;13063085;22;20258;-74
2022/10/05 23:14:41;;;;;;;9.77;1.23;;;;;14.00;101705.00;;;;13041020;22;20179;-74
2022/10/05 23:19:43;;;;;;;11.85;2.25;;;;;13.90;101699.00;;;;13061939;22;20163;-74
2022/10/05 23:24:44;;;;;;;8.90;1.53;;;;;13.90;101721.00;;;;13066545;22;20282;-74
2022/10/05 23:29:45;;;;;;;7.30;1.67;;;;;13.80;101726.00;;;;13042158;22;20170;-75
2022/10/05 23:34:46;;;;;;;5.03;1.50;;;;;13.70;101738.00;;;;13036366;22;20163;-74
2022/10/05 23:39:47;;;;;;;6.37;1.47;;;;;13.60;101743.00;;;;13035471;22;20759;-74
2022/10/05 23:44:48;;;;;;;13.73;2.07;;;;;13.60;101758.00;;;;13065249;22;20210;-75
2022/10/05 23:49:49;;;;;;;6.00;1.33;;;;;13.50;101758.00;;;;13017083;22;20228;-74
2022/10/05 23:54:51;;;;;;;9.87;1.83;;;;;13.40;101773.00;;;;13088032;22;20167;-74
2022/10/05 23:59:55;;;;;;;7.70;1.67;;;;;13.30;101793.00;;;;13062829;22;20172;-74
